createdAt,value
2023-08-02T00:00:25.786Z,17.90
2023-08-02T00:02:54.746Z,17.80
2023-08-02T00:05:22.900Z,17.80
2023-08-02T00:07:50.969Z,17.70
2023-08-02T00:10:21.331Z,17.70
2023-08-02T00:12:53.056Z,17.70
2023-08-02T00:15:21.424Z,17.70
2023-08-02T00:17:49.930Z,17.70
2023-08-02T00:20:18.129Z,17.80
2023-08-02T00:22:47.121Z,17.80
2023-08-02T00:25:15.251Z,17.70
2023-08-02T00:27:46.469Z,17.60
2023-08-02T00:30:14.705Z,17.60
2023-08-02T00:32:49.282Z,17.60
2023-08-02T00:35:17.797Z,17.60
2023-08-02T00:37:49.636Z,17.50
2023-08-02T00:40:17.668Z,17.50
2023-08-02T00:42:45.773Z,17.60
2023-08-02T00:45:14.747Z,17.50
2023-08-02T00:47:43.008Z,17.50
2023-08-02T00:50:11.359Z,17.40
2023-08-02T00:52:39.975Z,17.40
2023-08-02T00:55:09.138Z,17.40
2023-08-02T00:57:37.280Z,17.40
2023-08-02T01:00:05.658Z,17.30
2023-08-02T01:02:36.657Z,17.30
2023-08-02T01:05:05.384Z,17.30
2023-08-02T01:07:53.725Z,17.40
2023-08-02T01:10:26.885Z,17.40
2023-08-02T01:12:56.322Z,17.40
2023-08-02T01:15:26.402Z,17.20
2023-08-02T01:17:55.473Z,17.20
2023-08-02T01:20:23.716Z,17.20
2023-08-02T01:22:51.963Z,17.20
2023-08-02T01:25:20.348Z,17.30
2023-08-02T01:27:52.734Z,17.30
2023-08-02T01:30:22.204Z,17.20
2023-08-02T01:32:50.686Z,17.20
2023-08-02T01:35:18.926Z,17.10
2023-08-02T01:37:49.235Z,17.30
2023-08-02T01:40:18.143Z,17.50
2023-08-02T01:42:47.515Z,17.40
2023-08-02T01:45:15.722Z,17.40
2023-08-02T01:47:44.022Z,17.30
2023-08-02T01:50:12.460Z,17.20
2023-08-02T01:52:40.667Z,17.10
2023-08-02T01:55:10.068Z,17.10
2023-08-02T01:57:38.288Z,17.20
2023-08-02T02:00:07.064Z,17.00
2023-08-02T02:02:41.225Z,17.10
2023-08-02T02:05:10.001Z,17.20
2023-08-02T02:07:38.160Z,17.10
2023-08-02T02:10:06.534Z,17.10
2023-08-02T02:12:34.683Z,17.10
2023-08-02T02:15:03.008Z,17.30
2023-08-02T02:17:32.275Z,17.20
2023-08-02T02:20:00.424Z,17.20
2023-08-02T02:22:28.697Z,17.20
2023-08-02T02:24:56.897Z,17.20
2023-08-02T02:27:25.026Z,17.20
2023-08-02T02:29:53.217Z,17.10
2023-08-02T02:32:21.288Z,17.10
2023-08-02T02:34:49.386Z,17.10
2023-08-02T02:37:19.833Z,17.10
2023-08-02T02:39:47.916Z,17.10
2023-08-02T02:42:16.047Z,17.10
2023-08-02T02:44:44.938Z,17.00
2023-08-02T02:47:13.407Z,17.00
2023-08-02T02:49:41.607Z,17.00
2023-08-02T02:52:11.984Z,17.00
2023-08-02T02:54:40.136Z,17.00
2023-08-02T02:57:08.358Z,17.00
2023-08-02T02:59:36.507Z,17.00
2023-08-02T03:02:04.886Z,16.90
2023-08-02T03:04:33.156Z,17.00
2023-08-02T03:07:01.214Z,17.00
2023-08-02T03:09:29.327Z,17.00
2023-08-02T03:11:59.681Z,17.00
2023-08-02T03:14:28.733Z,17.00
2023-08-02T03:16:57.009Z,16.90
2023-08-02T03:19:25.285Z,16.80
2023-08-02T03:21:53.341Z,17.00
2023-08-02T03:24:23.953Z,16.90
2023-08-02T03:26:52.211Z,16.80
2023-08-02T03:29:20.406Z,16.90
2023-08-02T03:31:48.544Z,16.80
2023-08-02T03:34:16.769Z,16.80
2023-08-02T03:36:45.081Z,16.80
2023-08-02T03:39:16.323Z,16.80
2023-08-02T03:41:44.438Z,16.90
2023-08-02T03:44:12.922Z,16.80
2023-08-02T03:46:41.220Z,16.90
2023-08-02T03:49:09.798Z,16.90
2023-08-02T03:51:41.175Z,17.00
2023-08-02T03:54:11.935Z,17.00
2023-08-02T03:56:40.252Z,17.10
2023-08-02T03:59:08.814Z,17.00
2023-08-02T04:01:40.031Z,17.10
2023-08-02T04:04:11.141Z,17.20
2023-08-02T04:06:39.395Z,17.20
2023-08-02T04:09:08.155Z,17.30
2023-08-02T04:11:36.373Z,17.40
2023-08-02T04:14:04.435Z,17.50
2023-08-02T04:16:32.640Z,17.70
2023-08-02T04:19:06.044Z,17.80
2023-08-02T04:21:34.267Z,17.90
2023-08-02T04:24:02.630Z,17.90
2023-08-02T04:26:31.255Z,18.00
2023-08-02T04:28:59.364Z,18.20
2023-08-02T04:31:27.588Z,18.20
2023-08-02T04:33:56.510Z,18.30
2023-08-02T04:36:24.571Z,18.40
2023-08-02T04:38:53.790Z,18.40
2023-08-02T04:41:22.291Z,18.50
2023-08-02T04:43:50.458Z,18.70
2023-08-02T04:46:18.604Z,18.90
2023-08-02T04:48:46.966Z,19.00
2023-08-02T04:51:15.350Z,19.10
2023-08-02T04:53:45.179Z,19.20
2023-08-02T04:56:13.244Z,19.40
2023-08-02T04:58:41.815Z,19.60
2023-08-02T05:01:09.967Z,19.80
2023-08-02T05:03:45.140Z,19.90
2023-08-02T05:06:14.248Z,20.00
2023-08-02T05:08:42.330Z,20.10
2023-08-02T05:11:14.065Z,20.00
2023-08-02T05:13:43.525Z,20.10
2023-08-02T05:16:15.550Z,20.20
2023-08-02T05:18:43.912Z,20.20
2023-08-02T05:21:15.451Z,20.30
2023-08-02T05:23:47.336Z,20.40
2023-08-02T05:26:15.584Z,20.60
2023-08-02T05:28:46.158Z,20.70
2023-08-02T05:31:15.408Z,20.90
2023-08-02T05:33:45.054Z,21.00
2023-08-02T05:36:16.712Z,21.20
2023-08-02T05:38:45.557Z,21.30
2023-08-02T05:41:13.720Z,21.50
2023-08-02T05:43:46.454Z,21.60
2023-08-02T05:46:14.673Z,21.60
2023-08-02T05:48:42.797Z,21.70
2023-08-02T05:51:15.704Z,21.90
2023-08-02T05:53:43.910Z,22.10
2023-08-02T05:56:15.128Z,22.20
2023-08-02T05:58:46.504Z,22.30
2023-08-02T06:01:17.212Z,22.50
2023-08-02T06:03:48.002Z,22.70
2023-08-02T06:06:17.298Z,23.00
2023-08-02T06:08:47.534Z,23.40
2023-08-02T06:11:15.642Z,23.70
2023-08-02T06:13:46.650Z,23.90
2023-08-02T06:16:17.334Z,23.90
2023-08-02T06:18:45.441Z,23.90
2023-08-02T06:21:13.914Z,23.90
2023-08-02T06:23:44.797Z,24.00
2023-08-02T06:26:12.928Z,24.10
2023-08-02T06:28:41.030Z,24.30
2023-08-02T06:31:09.284Z,24.40
2023-08-02T06:33:37.392Z,24.40
2023-08-02T06:36:05.585Z,24.30
2023-08-02T06:38:34.244Z,24.20
2023-08-02T06:41:02.342Z,24.20
2023-08-02T06:43:30.953Z,24.10
2023-08-02T06:45:59.273Z,24.20
2023-08-02T06:48:27.658Z,24.60
2023-08-02T06:50:56.020Z,25.20
2023-08-02T06:53:24.220Z,25.50
2023-08-02T06:55:52.288Z,25.80
2023-08-02T06:58:20.928Z,26.10
2023-08-02T07:00:49.376Z,26.10
2023-08-02T07:03:17.431Z,26.10
2023-08-02T07:05:46.302Z,26.10
2023-08-02T07:08:17.410Z,26.10
2023-08-02T07:10:45.531Z,26.30
2023-08-02T07:13:13.728Z,26.50
2023-08-02T07:15:41.789Z,26.70
2023-08-02T07:18:10.013Z,27.00
2023-08-02T07:20:38.120Z,27.10
2023-08-02T07:23:07.498Z,26.80
2023-08-02T07:25:36.297Z,27.00
2023-08-02T07:28:04.560Z,27.10
2023-08-02T07:30:32.863Z,27.50
2023-08-02T07:33:01.021Z,27.80
2023-08-02T07:35:29.131Z,28.00
2023-08-02T07:37:57.272Z,28.30
2023-08-02T07:40:25.384Z,28.60
2023-08-02T07:42:53.578Z,28.80
2023-08-02T07:45:21.826Z,28.90
2023-08-02T07:47:49.939Z,29.10
2023-08-02T07:50:18.127Z,29.30
2023-08-02T07:52:46.448Z,29.50
2023-08-02T07:55:14.680Z,29.60
2023-08-02T07:57:42.836Z,29.70
2023-08-02T08:00:11.383Z,29.80
2023-08-02T08:02:42.534Z,30.10
2023-08-02T08:05:10.922Z,30.30
2023-08-02T08:07:41.683Z,30.50
2023-08-02T08:10:12.794Z,30.30
2023-08-02T08:12:41.281Z,30.20
2023-08-02T08:15:10.529Z,30.10
2023-08-02T08:17:38.760Z,30.40
2023-08-02T08:20:07.352Z,30.70
2023-08-02T08:22:35.545Z,31.00
2023-08-02T08:25:04.264Z,31.20
2023-08-02T08:27:32.876Z,31.50
2023-08-02T08:30:01.372Z,31.60
2023-08-02T08:32:29.695Z,31.60
2023-08-02T08:34:57.928Z,31.70
2023-08-02T08:37:26.503Z,31.70
2023-08-02T08:40:11.975Z,31.80
2023-08-02T08:42:51.750Z,31.90
2023-08-02T08:45:21.224Z,31.70
2023-08-02T08:47:54.397Z,31.60
2023-08-02T08:50:23.348Z,31.60
2023-08-02T08:52:55.708Z,31.90
2023-08-02T08:55:32.284Z,32.00
2023-08-02T08:58:05.165Z,32.20
2023-08-02T09:00:40.701Z,31.90
2023-08-02T09:03:09.263Z,31.40
2023-08-02T09:05:39.650Z,31.50
2023-08-02T09:08:07.847Z,31.70
2023-08-02T09:10:36.376Z,31.80
2023-08-02T09:13:04.476Z,31.30
2023-08-02T09:15:32.735Z,30.80
2023-08-02T09:18:01.519Z,30.20
2023-08-02T09:20:32.779Z,30.30
2023-08-02T09:23:02.559Z,30.70
2023-08-02T09:25:30.729Z,31.00
2023-08-02T09:28:02.010Z,31.20
2023-08-02T09:30:34.046Z,31.30
2023-08-02T09:33:02.327Z,31.40
2023-08-02T09:35:51.977Z,31.40
2023-08-02T09:38:21.024Z,31.50
2023-08-02T09:43:21.723Z,31.90
2023-08-02T09:45:55.058Z,31.90
2023-08-02T09:48:35.050Z,31.90
2023-08-02T09:51:05.537Z,32.20
2023-08-02T09:53:34.365Z,32.70
2023-08-02T09:56:06.083Z,33.00
2023-08-02T09:58:35.306Z,33.20
2023-08-02T10:01:05.100Z,33.30
2023-08-02T10:03:34.598Z,33.60
2023-08-02T10:06:07.704Z,33.50
2023-08-02T10:08:37.754Z,33.40
2023-08-02T10:11:06.435Z,33.70
2023-08-02T10:13:38.829Z,33.40
2023-08-02T10:16:10.838Z,33.50
2023-08-02T10:18:40.919Z,33.50
2023-08-02T10:21:09.372Z,33.80
2023-08-02T10:23:37.662Z,33.80
2023-08-02T10:26:06.992Z,33.60
2023-08-02T10:28:35.379Z,33.60
2023-08-02T10:31:07.582Z,33.20
2023-08-02T10:33:36.957Z,32.70
2023-08-02T10:36:06.589Z,32.40
2023-08-02T10:38:41.010Z,32.60
2023-08-02T10:41:10.643Z,32.30
2023-08-02T10:43:58.488Z,32.60
2023-08-02T10:46:28.296Z,33.00
2023-08-02T10:48:58.531Z,33.20
2023-08-02T10:51:34.153Z,32.90
2023-08-02T10:54:20.608Z,32.40
2023-08-02T10:56:59.715Z,32.20
2023-08-02T10:59:30.881Z,32.30
2023-08-02T11:02:00.426Z,32.60
2023-08-02T11:04:30.595Z,33.10
2023-08-02T11:07:20.605Z,33.50
2023-08-02T11:09:50.891Z,34.00
2023-08-02T11:12:22.231Z,34.30
2023-08-02T11:14:54.205Z,34.00
2023-08-02T11:22:35.726Z,34.00
2023-08-02T11:25:05.008Z,34.40
2023-08-02T11:30:09.354Z,35.00
2023-08-02T11:32:44.647Z,35.70
2023-08-02T11:35:17.160Z,36.00
2023-08-02T11:37:45.996Z,36.20
2023-08-02T11:42:50.099Z,34.60
2023-08-02T11:45:31.271Z,34.80
2023-08-02T11:48:09.410Z,35.40
2023-08-02T11:50:41.006Z,35.90
2023-08-02T11:53:11.735Z,34.90
2023-08-02T11:55:40.612Z,33.90
2023-08-02T11:58:09.563Z,33.70
2023-08-02T12:00:40.998Z,33.10
2023-08-02T12:03:13.708Z,33.30
2023-08-02T12:05:42.550Z,32.60
2023-08-02T12:08:14.741Z,32.40
2023-08-02T12:10:43.838Z,32.20
2023-08-02T12:13:22.333Z,33.00
2023-08-02T12:16:00.527Z,34.50
2023-08-02T12:18:29.979Z,35.50
2023-08-02T12:20:58.916Z,36.00
2023-08-02T12:23:45.242Z,36.50
2023-08-02T12:26:16.070Z,36.60
2023-08-02T12:28:48.111Z,36.90
2023-08-02T12:31:19.813Z,37.10
2023-08-02T12:33:48.091Z,37.10
2023-08-02T12:36:26.370Z,36.60
2023-08-02T12:38:54.788Z,36.50
2023-08-02T12:41:23.043Z,36.20
2023-08-02T12:43:51.278Z,36.70
2023-08-02T12:46:19.811Z,36.10
2023-08-02T12:48:48.425Z,35.10
2023-08-02T12:51:16.881Z,34.30
2023-08-02T12:53:45.077Z,33.30
2023-08-02T12:56:14.410Z,32.70
2023-08-02T12:58:42.585Z,32.10
2023-08-02T13:01:10.802Z,32.90
2023-08-02T13:03:39.228Z,34.10
2023-08-02T13:06:07.677Z,34.90
2023-08-02T13:08:38.303Z,35.50
2023-08-02T13:11:06.453Z,35.60
2023-08-02T13:13:37.048Z,36.10
2023-08-02T13:16:07.833Z,36.60
2023-08-02T13:18:36.153Z,36.90
2023-08-02T13:21:05.055Z,37.00
2023-08-02T13:23:33.942Z,37.20
2023-08-02T13:26:02.796Z,37.40
2023-08-02T13:28:31.160Z,37.50
2023-08-02T13:31:00.279Z,37.40
2023-08-02T13:33:28.479Z,36.20
2023-08-02T13:35:56.587Z,36.30
2023-08-02T13:38:24.804Z,36.60
2023-08-02T13:40:53.905Z,36.70
2023-08-02T13:43:26.488Z,36.60
2023-08-02T13:45:55.035Z,36.70
2023-08-02T13:48:23.197Z,36.40
2023-08-02T13:50:51.790Z,36.60
2023-08-02T13:53:19.946Z,36.50
2023-08-02T13:55:51.161Z,36.80
2023-08-02T13:58:21.676Z,36.80
2023-08-02T14:00:49.939Z,36.80
2023-08-02T14:03:22.123Z,36.80
2023-08-02T14:05:52.903Z,36.70
2023-08-02T14:08:31.881Z,36.90
2023-08-02T14:11:10.459Z,37.10
2023-08-02T14:13:43.188Z,37.20
2023-08-02T14:16:11.474Z,37.30
2023-08-02T14:18:42.849Z,35.80
2023-08-02T14:21:17.596Z,35.40
2023-08-02T14:23:46.394Z,34.50
2023-08-02T14:26:17.334Z,33.50
2023-08-02T14:28:48.216Z,32.70
2023-08-02T14:31:20.425Z,32.10
2023-08-02T14:33:52.084Z,32.00
2023-08-02T14:36:20.404Z,32.80
2023-08-02T14:38:50.831Z,33.40
2023-08-02T14:41:18.979Z,33.30
2023-08-02T14:43:47.756Z,33.20
2023-08-02T14:46:15.901Z,32.80
2023-08-02T14:48:55.524Z,32.90
2023-08-02T14:51:25.968Z,32.60
2023-08-02T14:54:07.569Z,33.00
2023-08-02T14:56:41.845Z,32.80
2023-08-02T14:59:11.154Z,32.60
2023-08-02T15:01:40.049Z,32.70
2023-08-02T15:04:18.482Z,33.30
2023-08-02T15:06:51.584Z,33.40
2023-08-02T15:09:20.098Z,32.10
2023-08-02T15:11:48.826Z,32.30
2023-08-02T15:14:16.959Z,31.60
2023-08-02T15:16:46.256Z,31.20
2023-08-02T15:19:24.744Z,30.90
2023-08-02T15:22:00.142Z,30.70
2023-08-02T15:24:30.714Z,30.80
2023-08-02T15:27:00.194Z,30.90
2023-08-02T15:29:28.627Z,31.30
2023-08-02T15:31:57.064Z,31.60
2023-08-02T15:34:31.133Z,31.70
2023-08-02T15:37:03.528Z,31.50
2023-08-02T15:39:32.049Z,31.10
2023-08-02T15:42:04.031Z,30.90
2023-08-02T15:44:35.459Z,30.60
2023-08-02T15:47:04.464Z,30.10
2023-08-02T15:49:32.719Z,29.80
2023-08-02T15:52:03.291Z,29.70
2023-08-02T15:54:36.894Z,29.30
2023-08-02T15:57:05.453Z,29.30
2023-08-02T15:59:34.707Z,29.40
2023-08-02T16:02:04.247Z,29.30
2023-08-02T16:04:39.070Z,29.20
2023-08-02T16:07:08.533Z,29.00
2023-08-02T16:09:39.079Z,29.10
2023-08-02T16:12:09.629Z,29.10
2023-08-02T16:14:41.399Z,29.20
2023-08-02T16:17:10.341Z,29.40
2023-08-02T16:19:48.360Z,29.50
2023-08-02T16:22:19.838Z,29.60
2023-08-02T16:24:48.202Z,29.60
2023-08-02T16:27:18.882Z,29.70
2023-08-02T16:29:50.401Z,29.70
2023-08-02T16:32:18.598Z,29.60
2023-08-02T16:34:49.846Z,29.50
2023-08-02T16:37:21.043Z,29.40
2023-08-02T16:39:51.652Z,29.20
2023-08-02T16:42:20.451Z,29.10
2023-08-02T16:45:01.067Z,28.80
2023-08-02T16:47:32.693Z,28.60
2023-08-02T16:50:01.165Z,28.30
2023-08-02T16:52:30.211Z,28.00
2023-08-02T16:55:03.042Z,27.90
2023-08-02T16:57:33.910Z,27.60
2023-08-02T17:00:06.328Z,27.30
2023-08-02T17:02:35.272Z,27.10
2023-08-02T17:05:03.515Z,26.80
2023-08-02T17:07:32.261Z,26.70
2023-08-02T17:10:01.294Z,26.30
2023-08-02T17:12:29.504Z,26.00
2023-08-02T17:14:57.688Z,25.70
2023-08-02T17:17:26.039Z,25.60
2023-08-02T17:19:54.221Z,25.50
2023-08-02T17:22:26.329Z,25.30
2023-08-02T17:24:56.020Z,25.20
2023-08-02T17:27:25.090Z,25.00
2023-08-02T17:29:53.363Z,24.90
2023-08-02T17:32:21.634Z,24.80
2023-08-02T17:34:49.868Z,24.70
2023-08-02T17:37:30.393Z,24.60
2023-08-02T17:39:59.355Z,24.50
2023-08-02T17:42:31.421Z,24.30
2023-08-02T17:45:04.877Z,24.30
2023-08-02T17:47:33.152Z,24.20
2023-08-02T17:50:01.583Z,23.90
2023-08-02T17:52:33.106Z,23.80
2023-08-02T17:55:03.551Z,23.70
2023-08-02T17:57:34.576Z,23.50
2023-08-02T18:00:07.384Z,23.40
2023-08-02T18:02:42.958Z,23.40
2023-08-02T18:05:13.657Z,23.40
2023-08-02T18:07:45.206Z,23.40
2023-08-02T18:10:15.856Z,23.20
2023-08-02T18:12:44.106Z,23.00
2023-08-02T18:15:12.177Z,23.00
2023-08-02T18:17:41.400Z,22.90
2023-08-02T18:20:10.257Z,22.90
2023-08-02T18:22:41.083Z,23.00
2023-08-02T18:25:09.473Z,23.00
2023-08-02T18:27:37.664Z,23.20
2023-08-02T18:30:06.137Z,23.10
2023-08-02T18:32:34.341Z,23.00
2023-08-02T18:35:02.530Z,23.00
2023-08-02T18:37:30.591Z,23.00
2023-08-02T18:40:00.438Z,23.00
2023-08-02T18:42:28.574Z,23.10
2023-08-02T18:44:57.047Z,23.10
2023-08-02T18:47:25.315Z,23.00
2023-08-02T18:49:54.023Z,22.90
2023-08-02T18:52:22.251Z,23.10
2023-08-02T18:54:50.327Z,23.00
2023-08-02T18:57:18.528Z,22.90
2023-08-02T18:59:47.379Z,22.90
2023-08-02T19:02:16.390Z,22.80
2023-08-02T19:04:44.731Z,23.00
2023-08-02T19:07:15.054Z,23.00
2023-08-02T19:09:44.365Z,23.00
2023-08-02T19:12:16.790Z,23.00
2023-08-02T19:14:46.219Z,22.80
2023-08-02T19:17:18.310Z,22.70
2023-08-02T19:19:47.396Z,22.70
2023-08-02T19:22:17.159Z,22.70
2023-08-02T19:24:45.530Z,22.50
2023-08-02T19:27:14.080Z,22.50
2023-08-02T19:29:42.234Z,22.50
2023-08-02T19:32:14.892Z,22.50
2023-08-02T19:34:46.936Z,22.30
2023-08-02T19:37:21.626Z,22.30
2023-08-02T19:39:55.219Z,22.40
2023-08-02T19:42:24.058Z,22.30
2023-08-02T19:44:52.301Z,22.20
2023-08-02T19:47:26.219Z,22.10
2023-08-02T19:49:55.369Z,22.20
2023-08-02T19:52:24.391Z,22.20
2023-08-02T19:54:52.822Z,22.10
2023-08-02T19:57:25.552Z,22.20
2023-08-02T19:59:53.978Z,22.20
2023-08-02T20:02:24.699Z,22.20
2023-08-02T20:04:53.413Z,22.30
2023-08-02T20:07:23.399Z,22.20
2023-08-02T20:09:53.012Z,22.00
2023-08-02T20:12:21.857Z,22.10
2023-08-02T20:14:50.597Z,22.20
2023-08-02T20:17:22.444Z,22.20
2023-08-02T20:19:54.100Z,22.10
2023-08-02T20:22:24.955Z,21.90
2023-08-02T20:25:02.209Z,21.80
2023-08-02T20:27:34.922Z,21.80
2023-08-02T20:30:15.367Z,21.90
2023-08-02T20:32:52.504Z,22.10
2023-08-02T20:35:21.620Z,21.90
2023-08-02T20:38:00.331Z,21.80
2023-08-02T20:40:30.211Z,21.90
2023-08-02T20:43:02.808Z,21.90
2023-08-02T20:45:34.092Z,21.80
2023-08-02T20:48:06.683Z,21.70
2023-08-02T20:50:35.804Z,21.60
2023-08-02T20:53:05.139Z,21.50
2023-08-02T20:55:37.596Z,21.50
2023-08-02T20:58:06.043Z,21.40
2023-08-02T21:00:49.902Z,21.60
2023-08-02T21:03:22.398Z,21.80
2023-08-02T21:05:50.581Z,21.70
2023-08-02T21:08:18.720Z,21.50
2023-08-02T21:10:46.950Z,21.40
2023-08-02T21:13:15.464Z,21.50
2023-08-02T21:15:47.880Z,21.50
2023-08-02T21:18:18.234Z,21.40
2023-08-02T21:20:47.785Z,21.20
2023-08-02T21:23:17.283Z,21.20
2023-08-02T21:25:46.526Z,21.10
2023-08-02T21:28:18.488Z,21.00
2023-08-02T21:30:50.677Z,21.10
2023-08-02T21:33:19.937Z,21.10
2023-08-02T21:35:49.201Z,21.20
2023-08-02T21:38:20.534Z,21.20
2023-08-02T21:40:49.901Z,21.30
2023-08-02T21:43:21.110Z,21.30
2023-08-02T21:45:54.825Z,21.10
2023-08-02T21:48:23.206Z,21.10
2023-08-02T21:50:51.584Z,21.10
2023-08-02T21:53:22.373Z,21.00
2023-08-02T21:55:54.139Z,21.00
2023-08-02T21:58:28.995Z,21.10
2023-08-02T22:00:57.663Z,21.20
2023-08-02T22:03:26.821Z,21.10
2023-08-02T22:06:05.343Z,21.00
2023-08-02T22:08:37.453Z,21.10
2023-08-02T22:11:06.150Z,21.20
2023-08-02T22:13:34.283Z,21.20
2023-08-02T22:16:02.852Z,21.00
2023-08-02T22:18:31.093Z,21.00
2023-08-02T22:20:59.176Z,20.90
2023-08-02T22:23:28.325Z,21.00
2023-08-02T22:25:56.629Z,21.00
2023-08-02T22:28:24.845Z,20.90
2023-08-02T22:30:53.315Z,20.80
2023-08-02T22:33:21.362Z,20.80
2023-08-02T22:35:49.435Z,20.70
2023-08-02T22:38:17.630Z,20.70
2023-08-02T22:40:49.331Z,20.70
2023-08-02T22:43:20.279Z,20.50
2023-08-02T22:45:48.428Z,20.50
2023-08-02T22:48:59.993Z,20.40
2023-08-02T22:51:06.336Z,20.40
2023-08-02T22:53:35.537Z,20.40
2023-08-02T22:56:04.344Z,20.30
2023-08-02T22:58:33.557Z,20.20
2023-08-02T23:01:09.587Z,20.00
2023-08-02T23:03:44.739Z,20.10
2023-08-02T23:06:18.530Z,20.30
2023-08-02T23:08:46.877Z,20.20
2023-08-02T23:11:19.196Z,19.80
2023-08-02T23:13:48.478Z,19.90
2023-08-02T23:16:24.480Z,19.70
2023-08-02T23:18:54.410Z,19.70
2023-08-02T23:21:22.533Z,19.60
2023-08-02T23:23:51.508Z,19.40
2023-08-02T23:26:23.990Z,19.50
2023-08-02T23:28:53.069Z,19.40
2023-08-02T23:31:25.458Z,19.50
2023-08-02T23:33:54.162Z,19.60
2023-08-02T23:36:22.656Z,19.50
2023-08-02T23:38:53.259Z,19.40
2023-08-02T23:41:21.438Z,19.40
2023-08-02T23:43:50.369Z,19.50
2023-08-02T23:46:19.527Z,19.40
2023-08-02T23:48:47.637Z,19.50
2023-08-02T23:51:17.111Z,19.40
2023-08-02T23:53:45.260Z,19.40
2023-08-02T23:56:13.479Z,19.40
2023-08-02T23:58:42.909Z,19.30
